Time;durP1;ratioP1;P1;durP2;ratioP2;P2;SDS_P1;SDS_P2;PMS_P1;PMS_P2;Temp;Humidity;BMP_temperature;BMP_pressure;BME280_temperature;BME280_humidity;BME280_pressure;Samples;Min_cycle;Max_cycle;Signal;HPM_P1;HPM_P2
2022/08/18 00:02:00;;;;;;;9.77;8.17;;;23.80;99.80;;;;;;5113109;28;20473;-46
2022/08/18 00:04:33;;;;;;;9.23;7.17;;;23.80;99.90;;;;;;5109274;28;20945;-46
2022/08/18 00:07:12;;;;;;;10.67;7.60;;;23.70;99.90;;;;;;5106179;29;20532;-45
2022/08/18 00:09:43;;;;;;;8.80;8.00;;;23.70;99.90;;;;;;5127313;28;20490;-48
2022/08/18 00:12:22;;;;;;;15.90;8.73;;;23.70;99.90;;;;;;5124857;28;20989;-45
2022/08/18 00:14:54;;;;;;;9.10;8.23;;;23.60;99.90;;;;;;5134124;28;20449;-45
2022/08/18 00:17:24;;;;;;;10.03;8.70;;;23.60;99.90;;;;;;5107066;28;20435;-46
2022/08/18 00:19:55;;;;;;;12.50;8.53;;;23.60;99.90;;;;;;5108116;28;20941;-45
2022/08/18 00:22:26;;;;;;;12.77;9.07;;;23.50;99.90;;;;;;5104895;28;20182;-46
2022/08/18 00:24:57;;;;;;;13.70;7.60;;;23.50;99.90;;;;;;5112192;28;20191;-46
2022/08/18 00:27:30;;;;;;;11.70;8.43;;;23.50;99.90;;;;;;5110104;28;20226;-45
2022/08/18 00:30:04;;;;;;;10.03;9.03;;;23.40;99.90;;;;;;5111146;29;20465;-46
2022/08/18 00:32:41;;;;;;;10.17;9.10;;;23.50;99.90;;;;;;5119171;28;20449;-45
2022/08/18 00:35:26;;;;;;;10.23;8.47;;;23.40;99.90;;;;;;5136256;28;20460;-45
2022/08/18 00:37:58;;;;;;;9.33;7.87;;;23.40;99.90;;;;;;5119996;28;20430;-46
2022/08/18 00:40:36;;;;;;;9.83;7.73;;;23.40;99.90;;;;;;5118995;28;20447;-47
2022/08/18 00:43:13;;;;;;;9.60;8.27;;;23.40;99.90;;;;;;5130181;28;20968;-46
2022/08/18 00:45:44;;;;;;;12.00;8.30;;;23.40;99.90;;;;;;5118807;28;20906;-48
2022/08/18 00:48:16;;;;;;;10.43;7.93;;;23.40;99.90;;;;;;5128157;28;20489;-45
2022/08/18 00:50:56;;;;;;;8.37;7.40;;;23.40;99.90;;;;;;5132341;28;20477;-48
2022/08/18 00:53:38;;;;;;;10.00;8.87;;;23.40;99.90;;;;;;5117683;28;20438;-46
2022/08/18 00:56:13;;;;;;;9.97;8.20;;;23.40;99.90;;;;;;5117329;29;20798;-45
2022/08/18 00:58:50;;;;;;;9.43;8.03;;;23.40;99.90;;;;;;5124741;28;20441;-46
2022/08/18 01:01:23;;;;;;;11.30;8.27;;;23.30;99.90;;;;;;5133697;28;20450;-46
2022/08/18 01:04:16;;;;;;;7.73;7.03;;;23.30;99.90;;;;;;5090520;28;20462;-46
2022/08/18 01:06:53;;;;;;;9.17;8.20;;;23.30;99.90;;;;;;5115517;29;21007;-45
2022/08/18 01:09:24;;;;;;;8.47;7.73;;;23.30;99.90;;;;;;5121526;29;20984;-46
2022/08/18 01:11:55;;;;;;;10.13;7.50;;;23.30;99.90;;;;;;5119055;28;20501;-46
2022/08/18 01:14:26;;;;;;;8.20;7.50;;;23.30;99.90;;;;;;5120702;28;20278;-45
2022/08/18 01:22:46;;;;;;;10.83;8.50;;;23.20;99.90;;;;;;5118970;29;20442;-46
2022/08/18 01:28:09;;;;;;;9.93;8.67;;;23.20;99.90;;;;;;5112926;29;20445;-48
2022/08/18 01:30:49;;;;;;;8.30;7.50;;;23.20;99.90;;;;;;5109530;28;20470;-48
2022/08/18 01:33:19;;;;;;;9.13;7.90;;;23.30;99.90;;;;;;5123719;29;20183;-46
2022/08/18 01:35:50;;;;;;;8.37;7.57;;;23.30;99.90;;;;;;5124322;28;20495;-46
2022/08/18 01:38:25;;;;;;;10.30;8.27;;;23.30;99.90;;;;;;5132012;28;20183;-45
2022/08/18 01:40:55;;;;;;;11.70;7.70;;;23.40;99.90;;;;;;5117876;28;20205;-46
2022/08/18 01:43:26;;;;;;;8.77;7.73;;;23.40;99.40;;;;;;5120835;28;20442;-46
2022/08/18 01:45:59;;;;;;;11.80;7.87;;;23.50;99.00;;;;;;5122489;28;20686;-47
2022/08/18 01:48:33;;;;;;;8.20;7.20;;;23.60;98.50;;;;;;5121385;29;20186;-47
2022/08/18 01:51:05;;;;;;;11.70;8.30;;;23.60;98.30;;;;;;5114578;28;21005;-46
2022/08/18 01:53:36;;;;;;;9.57;7.53;;;23.60;97.60;;;;;;5124966;28;20492;-45
2022/08/18 01:56:07;;;;;;;11.10;7.50;;;23.60;98.00;;;;;;5121472;28;20446;-46
2022/08/18 01:58:38;;;;;;;12.30;8.33;;;23.50;97.70;;;;;;5167648;28;20180;-45
2022/08/18 02:01:11;;;;;;;9.10;7.67;;;23.50;97.10;;;;;;5105770;29;20595;-46
2022/08/18 02:03:47;;;;;;;13.13;7.00;;;23.50;96.90;;;;;;5123745;28;20210;-45
2022/08/18 02:06:18;;;;;;;9.93;8.13;;;23.50;96.60;;;;;;5119873;29;20933;-46
2022/08/18 02:08:49;;;;;;;9.47;7.67;;;23.50;96.20;;;;;;5122517;28;20715;-46
2022/08/18 02:11:19;;;;;;;11.67;7.93;;;23.50;96.10;;;;;;5128521;28;20577;-46
2022/08/18 02:13:50;;;;;;;17.97;7.70;;;23.50;95.80;;;;;;5123528;28;20202;-45
2022/08/18 02:16:20;;;;;;;8.57;7.67;;;23.50;95.60;;;;;;5124711;28;20186;-46
2022/08/18 02:18:51;;;;;;;9.13;7.40;;;23.50;95.10;;;;;;5121676;28;20542;-45
2022/08/18 02:21:22;;;;;;;9.33;7.33;;;23.60;94.90;;;;;;5110208;29;20211;-46
2022/08/18 02:23:52;;;;;;;10.27;7.20;;;23.60;94.70;;;;;;5132206;28;20194;-45
2022/08/18 02:26:24;;;;;;;9.07;7.73;;;23.60;94.50;;;;;;5123425;28;20211;-48
2022/08/18 02:28:54;;;;;;;9.43;8.33;;;23.60;94.50;;;;;;5118918;28;20236;-46
2022/08/18 02:31:25;;;;;;;7.83;7.13;;;23.60;94.20;;;;;;5122664;28;20826;-46
2022/08/18 02:33:56;;;;;;;13.97;8.60;;;23.60;94.10;;;;;;5113320;28;20184;-45
2022/08/18 02:36:27;;;;;;;8.83;7.70;;;23.60;94.00;;;;;;5113500;29;20198;-46
2022/08/18 02:38:57;;;;;;;9.73;8.10;;;23.50;93.90;;;;;;5120246;28;20206;-45
2022/08/18 02:41:28;;;;;;;9.00;7.20;;;23.50;93.90;;;;;;5119055;28;20502;-45
2022/08/18 02:43:59;;;;;;;7.90;7.27;;;23.50;93.90;;;;;;5124664;28;20549;-44
2022/08/18 02:46:30;;;;;;;10.90;8.43;;;23.50;94.00;;;;;;5123439;29;20187;-45
2022/08/18 02:49:00;;;;;;;9.23;7.30;;;23.40;94.00;;;;;;5123833;28;20241;-44
2022/08/18 02:51:31;;;;;;;7.70;7.00;;;23.40;94.10;;;;;;5123338;28;20522;-45
2022/08/18 02:54:02;;;;;;;8.33;6.83;;;23.40;94.20;;;;;;5126108;28;20664;-45
2022/08/18 02:56:32;;;;;;;7.40;6.80;;;23.30;94.20;;;;;;5157793;28;20186;-43
2022/08/18 02:59:06;;;;;;;14.10;8.50;;;23.30;94.60;;;;;;5126452;28;20192;-46
2022/08/18 03:01:40;;;;;;;8.23;6.70;;;23.20;94.60;;;;;;5128999;28;20272;-46
2022/08/18 03:04:14;;;;;;;8.17;7.30;;;23.20;94.60;;;;;;5114858;28;20455;-45
2022/08/18 03:06:45;;;;;;;12.10;7.77;;;23.10;94.80;;;;;;5104228;28;20877;-45
2022/08/18 03:09:17;;;;;;;11.47;7.20;;;23.10;95.30;;;;;;5119635;29;20529;-44
2022/08/18 03:11:48;;;;;;;7.10;6.50;;;23.10;95.10;;;;;;5126423;28;21007;-45
2022/08/18 03:14:19;;;;;;;8.40;7.50;;;23.10;95.30;;;;;;5123671;28;20541;-46
2022/08/18 03:16:50;;;;;;;11.60;7.77;;;23.00;95.40;;;;;;5117054;28;20182;-44
2022/08/18 03:19:28;;;;;;;15.87;8.30;;;22.90;95.60;;;;;;5128727;28;20185;-46
2022/08/18 03:21:59;;;;;;;9.87;7.90;;;22.80;95.90;;;;;;5121319;28;20814;-47
2022/08/18 03:24:30;;;;;;;10.00;7.40;;;22.80;96.10;;;;;;5114170;28;20585;-46
2022/08/18 03:27:05;;;;;;;9.90;7.87;;;22.80;96.30;;;;;;5128378;28;20236;-47
2022/08/18 03:29:36;;;;;;;8.93;7.20;;;22.70;96.40;;;;;;5123118;28;20433;-47
2022/08/18 03:32:07;;;;;;;8.93;7.97;;;22.80;96.50;;;;;;5120251;28;20635;-48
2022/08/18 03:34:39;;;;;;;7.67;6.90;;;22.70;96.60;;;;;;5128300;28;20182;-47
2022/08/18 03:37:10;;;;;;;9.17;7.83;;;22.70;96.70;;;;;;5122355;29;20430;-47
2022/08/18 03:39:40;;;;;;;11.03;8.23;;;22.60;96.90;;;;;;5122474;28;20777;-46
2022/08/18 03:42:11;;;;;;;14.03;8.97;;;22.60;97.00;;;;;;5113248;28;20231;-48
2022/08/18 03:44:42;;;;;;;10.47;8.70;;;22.60;97.20;;;;;;5109918;29;20621;-48
2022/08/18 03:47:13;;;;;;;12.93;8.70;;;22.60;97.20;;;;;;5113969;29;20190;-48
2022/08/18 03:49:44;;;;;;;7.90;7.17;;;22.60;97.30;;;;;;5105605;28;20187;-47
2022/08/18 03:52:15;;;;;;;12.07;8.33;;;22.50;97.40;;;;;;5173113;28;20351;-47
2022/08/18 03:54:46;;;;;;;11.17;8.70;;;22.60;97.60;;;;;;5138171;28;20806;-48
2022/08/18 03:57:16;;;;;;;10.00;9.00;;;22.50;97.70;;;;;;5119499;28;20208;-48
2022/08/18 03:59:47;;;;;;;10.80;8.97;;;22.50;97.90;;;;;;5119233;28;20916;-49
2022/08/18 04:02:17;;;;;;;31.63;8.70;;;22.50;98.30;;;;;;5088855;28;20186;-46
2022/08/18 04:04:48;;;;;;;13.43;9.17;;;22.50;98.20;;;;;;5118316;28;20182;-47
2022/08/18 04:07:19;;;;;;;14.20;9.27;;;22.50;98.30;;;;;;5112639;28;20183;-45
2022/08/18 04:09:49;;;;;;;13.43;8.07;;;22.50;98.50;;;;;;5118187;28;20195;-46
2022/08/18 04:12:20;;;;;;;9.70;8.80;;;22.50;98.60;;;;;;5105856;28;20222;-45
2022/08/18 04:14:52;;;;;;;9.60;7.80;;;22.50;98.70;;;;;;5119880;28;20265;-45
2022/08/18 04:17:23;;;;;;;10.33;8.70;;;22.50;98.80;;;;;;5121238;28;20186;-46
2022/08/18 04:19:55;;;;;;;18.67;7.93;;;22.50;98.80;;;;;;5117727;28;20838;-45
2022/08/18 04:22:26;;;;;;;25.60;9.67;;;22.50;98.70;;;;;;5124172;28;20434;-45
2022/08/18 04:24:56;;;;;;;10.80;7.50;;;22.50;98.60;;;;;;5125952;28;20450;-47
2022/08/18 04:27:28;;;;;;;8.80;7.90;;;22.60;98.70;;;;;;5138282;28;20984;-46
2022/08/18 04:29:59;;;;;;;11.30;8.47;;;22.60;98.60;;;;;;5118819;28;20195;-45
2022/08/18 04:32:30;;;;;;;12.60;8.53;;;22.60;98.50;;;;;;5120766;28;20476;-48
2022/08/18 04:35:00;;;;;;;16.50;8.87;;;22.70;98.40;;;;;;5122182;28;20282;-45
2022/08/18 04:37:31;;;;;;;10.50;8.47;;;22.70;98.20;;;;;;5127539;28;20446;-46
2022/08/18 04:40:03;;;;;;;10.90;8.80;;;22.80;98.20;;;;;;5123856;28;20215;-45
2022/08/18 04:42:34;;;;;;;11.30;8.97;;;22.80;98.10;;;;;;5109258;28;20667;-46
2022/08/18 04:45:06;;;;;;;13.80;8.50;;;22.90;98.00;;;;;;5121418;28;20473;-47
2022/08/18 04:47:40;;;;;;;11.07;9.20;;;22.90;97.80;;;;;;5111958;29;20577;-46
2022/08/18 04:50:11;;;;;;;10.60;8.53;;;22.90;97.80;;;;;;5138801;28;20564;-46
2022/08/18 04:55:31;;;;;;;13.97;9.30;;;23.00;97.60;;;;;;5120272;29;20190;-46
2022/08/18 04:58:01;;;;;;;19.63;9.63;;;23.10;97.40;;;;;;5124216;28;20430;-45
2022/08/18 05:00:32;;;;;;;14.77;8.40;;;23.20;97.30;;;;;;5127579;28;20266;-47
2022/08/18 05:03:03;;;;;;;13.90;9.03;;;23.20;96.80;;;;;;5113129;28;20667;-47
2022/08/18 05:05:34;;;;;;;12.30;9.13;;;23.40;96.70;;;;;;5123226;28;20187;-47
2022/08/18 05:08:04;;;;;;;10.30;7.83;;;23.60;95.90;;;;;;5130704;28;20186;-47
2022/08/18 05:10:35;;;;;;;10.20;8.30;;;23.70;95.40;;;;;;5120892;28;20474;-48
2022/08/18 05:13:05;;;;;;;10.20;8.80;;;23.80;94.80;;;;;;5120181;28;20319;-47
2022/08/18 05:15:36;;;;;;;17.73;10.17;;;23.90;94.60;;;;;;5122528;28;20179;-47
2022/08/18 05:18:07;;;;;;;10.63;9.20;;;23.90;94.20;;;;;;5129278;28;20639;-47
2022/08/18 05:20:39;;;;;;;10.20;8.80;;;23.90;93.90;;;;;;5122840;29;20210;-47
2022/08/18 05:23:10;;;;;;;16.90;8.93;;;24.00;93.80;;;;;;5124074;28;20175;-45
2022/08/18 05:25:40;;;;;;;9.57;8.57;;;23.90;93.70;;;;;;5125946;28;20457;-45
2022/08/18 05:28:12;;;;;;;8.57;7.40;;;23.90;93.60;;;;;;5119782;28;20260;-46
2022/08/18 05:30:42;;;;;;;9.83;8.60;;;23.90;93.50;;;;;;5121791;28;20738;-46
2022/08/18 05:33:14;;;;;;;10.20;7.43;;;23.90;93.40;;;;;;5120910;28;20533;-47
2022/08/18 05:35:50;;;;;;;8.43;7.70;;;23.90;93.30;;;;;;5117456;28;20183;-47
2022/08/18 05:38:38;;;;;;;14.47;8.87;;;24.10;93.30;;;;;;5116697;28;21015;-45
2022/08/18 05:41:18;;;;;;;11.27;8.67;;;24.20;92.80;;;;;;5120905;28;20510;-47
2022/08/18 05:43:52;;;;;;;11.77;8.80;;;24.30;92.20;;;;;;5124382;28;20493;-45
2022/08/18 05:46:51;;;;;;;8.23;7.30;;;24.40;91.80;;;;;;5103825;28;20445;-49
2022/08/18 05:49:24;;;;;;;8.93;8.03;;;24.60;91.70;;;;;;5124206;28;20476;-47
2022/08/18 05:52:11;;;;;;;11.23;8.70;;;24.70;91.20;;;;;;5120288;28;20630;-44
2022/08/18 05:57:50;;;;;;;17.20;8.90;;;24.90;89.30;;;;;;5119938;29;21509;-47
2022/08/18 06:00:22;;;;;;;9.30;8.40;;;24.90;88.70;;;;;;5117413;28;20531;-45
2022/08/18 06:02:57;;;;;;;12.63;9.00;;;24.90;88.60;;;;;;5121009;29;20426;-47
2022/08/18 06:05:37;;;;;;;11.63;8.67;;;25.00;88.20;;;;;;5122435;28;20434;-46
2022/08/18 06:08:11;;;;;;;14.00;9.30;;;25.00;87.70;;;;;;5126187;28;20436;-47
2022/08/18 06:10:46;;;;;;;9.30;8.40;;;25.10;85.90;;;;;;5121497;28;20470;-49
2022/08/18 06:13:19;;;;;;;13.80;10.03;;;25.50;84.60;;;;;;5120351;28;20924;-48
2022/08/18 06:16:04;;;;;;;10.87;8.00;;;26.40;79.30;;;;;;5137722;28;20588;-47
2022/08/18 06:18:57;;;;;;;9.93;8.27;;;27.60;74.90;;;;;;5110896;28;20802;-45
2022/08/18 06:21:33;;;;;;;8.77;7.90;;;29.20;64.90;;;;;;5117521;28;20461;-47
2022/08/18 06:24:20;;;;;;;11.37;8.87;;;30.70;58.80;;;;;;5118547;28;20448;-50
2022/08/18 06:27:17;;;;;;;9.60;7.30;;;31.30;55.30;;;;;;5130577;28;20435;-48
2022/08/18 06:30:06;;;;;;;7.40;6.80;;;31.70;53.40;;;;;;5114425;28;20433;-45
2022/08/18 06:32:43;;;;;;;10.93;8.17;;;32.20;51.60;;;;;;5117217;28;20472;-48
2022/08/18 06:35:19;;;;;;;8.90;6.77;;;32.60;49.50;;;;;;5119545;28;20465;-48
2022/08/18 06:40:58;;;;;;;9.03;7.90;;;33.10;47.30;;;;;;5115094;28;20965;-47
2022/08/18 06:43:33;;;;;;;13.07;7.20;;;33.30;46.20;;;;;;5124698;28;20444;-47
2022/08/18 06:46:18;;;;;;;17.03;8.63;;;33.60;45.40;;;;;;5127232;28;20197;-49
2022/08/18 06:48:53;;;;;;;11.23;8.13;;;33.30;44.90;;;;;;5116852;28;20612;-48
2022/08/18 06:51:27;;;;;;;13.50;8.00;;;32.60;45.70;;;;;;5119247;28;20217;-47
2022/08/18 06:54:01;;;;;;;8.50;7.70;;;31.70;47.10;;;;;;5115645;28;20523;-48
2022/08/18 06:56:37;;;;;;;10.07;7.57;;;31.00;49.30;;;;;;5115373;28;21237;-47
2022/08/18 06:59:15;;;;;;;7.50;6.80;;;30.40;50.70;;;;;;5122249;28;20986;-49
2022/08/18 07:01:49;;;;;;;7.70;6.90;;;30.00;51.90;;;;;;5111352;28;20461;-48
2022/08/18 07:04:41;;;;;;;10.20;7.20;;;29.70;51.90;;;;;;5113582;28;20848;-48
2022/08/18 07:07:35;;;;;;;12.63;7.20;;;29.40;52.70;;;;;;5115306;28;20454;-47
2022/08/18 07:10:13;;;;;;;8.90;7.53;;;29.20;53.00;;;;;;5116595;28;20462;-47
2022/08/18 07:12:44;;;;;;;14.07;8.37;;;29.20;52.90;;;;;;5118721;28;20556;-48
2022/08/18 07:15:23;;;;;;;12.63;8.43;;;29.10;53.30;;;;;;5119973;28;20462;-47
2022/08/18 07:18:04;;;;;;;8.43;7.50;;;29.10;53.30;;;;;;5130061;28;20445;-49
2022/08/18 07:20:41;;;;;;;10.00;7.60;;;29.10;53.30;;;;;;5117507;28;20532;-48
2022/08/18 07:23:32;;;;;;;12.53;7.87;;;29.40;52.80;;;;;;5114752;28;20571;-50
2022/08/18 07:26:12;;;;;;;8.83;7.60;;;29.70;52.10;;;;;;5115454;28;20464;-49
2022/08/18 07:28:48;;;;;;;11.03;7.80;;;29.70;51.60;;;;;;5115356;28;20528;-48
2022/08/18 07:31:19;;;;;;;14.33;8.10;;;29.70;52.30;;;;;;5116491;28;20468;-49
2022/08/18 07:34:01;;;;;;;10.50;7.50;;;29.50;52.90;;;;;;5120830;28;20778;-50
2022/08/18 07:36:40;;;;;;;8.47;7.13;;;29.30;53.00;;;;;;5116661;28;20179;-45
2022/08/18 07:39:32;;;;;;;9.30;7.63;;;29.10;53.50;;;;;;5131803;28;20449;-45
2022/08/18 07:42:17;;;;;;;9.60;8.37;;;29.10;53.70;;;;;;5117290;28;20496;-46
2022/08/18 07:45:04;;;;;;;10.53;6.93;;;29.10;53.80;;;;;;5117035;28;20872;-47
2022/08/18 07:48:00;;;;;;;15.40;7.90;;;29.00;53.90;;;;;;5139528;28;20992;-45
2022/08/18 07:50:38;;;;;;;6.47;5.90;;;29.10;54.00;;;;;;5121635;28;20488;-47
2022/08/18 07:53:21;;;;;;;8.07;7.23;;;29.20;54.30;;;;;;5129398;28;20426;-46
2022/08/18 07:56:00;;;;;;;12.23;8.33;;;29.30;54.30;;;;;;5123864;28;20906;-45
2022/08/18 07:58:43;;;;;;;12.43;8.37;;;29.40;54.10;;;;;;5128693;28;20439;-45
2022/08/18 08:01:19;;;;;;;12.47;6.97;;;29.30;54.20;;;;;;5124742;28;20465;-47
2022/08/18 08:04:20;;;;;;;8.77;7.57;;;29.30;54.30;;;;;;5117703;28;21009;-47
2022/08/18 08:07:04;;;;;;;16.43;8.80;;;29.30;54.30;;;;;;5132842;28;20447;-47
2022/08/18 08:09:55;;;;;;;15.13;7.87;;;29.30;53.70;;;;;;5121597;28;20445;-46
2022/08/18 08:12:45;;;;;;;13.40;7.93;;;29.30;53.80;;;;;;5120378;28;20554;-47
2022/08/18 08:15:48;;;;;;;15.73;8.00;;;29.30;54.20;;;;;;5117300;28;20493;-47
2022/08/18 08:18:32;;;;;;;15.43;8.20;;;29.40;54.10;;;;;;5119193;29;20433;-46
2022/08/18 08:21:19;;;;;;;8.10;7.30;;;29.50;54.00;;;;;;5121212;28;20468;-46
2022/08/18 08:24:11;;;;;;;10.10;6.77;;;29.50;54.00;;;;;;5121394;28;20530;-47
2022/08/18 08:27:05;;;;;;;7.90;7.20;;;29.60;53.50;;;;;;5124232;28;20438;-48
2022/08/18 08:29:56;;;;;;;13.87;7.20;;;29.70;53.60;;;;;;5116369;28;20495;-45
2022/08/18 08:32:33;;;;;;;9.30;8.33;;;29.90;53.50;;;;;;5121437;28;20789;-46
2022/08/18 08:35:11;;;;;;;10.53;7.60;;;29.90;52.80;;;;;;5133473;28;20452;-46
2022/08/18 08:37:55;;;;;;;11.27;7.40;;;29.90;52.80;;;;;;5121383;29;20429;-46
2022/08/18 08:40:33;;;;;;;13.73;8.07;;;30.10;53.40;;;;;;5188141;28;20460;-47
2022/08/18 08:43:10;;;;;;;12.97;8.90;;;30.30;53.00;;;;;;5135609;28;20433;-46
2022/08/18 08:46:01;;;;;;;7.20;6.50;;;30.40;52.70;;;;;;5126748;28;20439;-47
2022/08/18 08:48:38;;;;;;;7.20;6.30;;;30.60;52.20;;;;;;5119820;28;20461;-46
2022/08/18 08:51:17;;;;;;;12.90;9.20;;;30.80;51.60;;;;;;5119948;28;20580;-46
2022/08/18 08:53:54;;;;;;;13.63;9.63;;;30.70;50.20;;;;;;5127328;28;20192;-47
2022/08/18 08:56:32;;;;;;;11.00;7.20;;;30.30;51.10;;;;;;5130117;28;20192;-45
2022/08/18 08:59:08;;;;;;;17.33;11.10;;;30.30;51.40;;;;;;5127908;28;20432;-45
2022/08/18 09:02:00;;;;;;;17.10;8.30;;;30.60;51.40;;;;;;5122082;28;20483;-46
2022/08/18 09:04:46;;;;;;;13.30;9.07;;;30.70;51.10;;;;;;5124704;28;20445;-46
2022/08/18 09:07:47;;;;;;;14.70;8.90;;;30.80;50.90;;;;;;5116393;28;20193;-46
2022/08/18 09:10:56;;;;;;;9.80;7.70;;;30.90;50.50;;;;;;5128691;28;20465;-48
2022/08/18 09:13:49;;;;;;;10.03;8.77;;;30.90;50.70;;;;;;5138206;28;20467;-47
2022/08/18 09:16:42;;;;;;;11.73;7.63;;;30.70;50.40;;;;;;5127018;28;20945;-45
2022/08/18 09:19:37;;;;;;;8.17;7.33;;;30.30;51.20;;;;;;5124071;28;20433;-47
2022/08/18 09:22:35;;;;;;;11.70;8.50;;;30.50;51.60;;;;;;5120564;29;20489;-47
2022/08/18 09:25:28;;;;;;;9.30;8.27;;;30.70;51.90;;;;;;5116407;28;20438;-47
2022/08/18 09:28:55;;;;;;;8.93;7.07;;;30.70;50.40;;;;;;5111317;28;20442;-48
2022/08/18 09:31:27;;;;;;;10.37;6.70;;;30.90;51.10;;;;;;5166233;28;20543;-47
2022/08/18 09:34:16;;;;;;;21.83;9.40;;;31.10;50.20;;;;;;5119130;28;20494;-45
2022/08/18 09:37:09;;;;;;;9.63;8.50;;;31.50;49.50;;;;;;5121449;28;20264;-48
2022/08/18 09:43:11;;;;;;;12.70;9.23;;;32.00;47.60;;;;;;5140189;28;20185;-47
2022/08/18 09:46:00;;;;;;;14.90;7.90;;;31.90;47.70;;;;;;5134558;28;20300;-46
2022/08/18 09:48:40;;;;;;;6.97;6.20;;;31.50;47.60;;;;;;5121546;28;20186;-46
2022/08/18 09:51:31;;;;;;;16.53;7.33;;;31.40;47.90;;;;;;5118638;28;20576;-48
2022/08/18 09:54:12;;;;;;;11.67;7.60;;;31.30;48.30;;;;;;5121259;28;20481;-47
2022/08/18 09:56:48;;;;;;;11.07;7.40;;;31.10;48.70;;;;;;5121193;28;20236;-47
2022/08/18 09:59:31;;;;;;;9.33;7.23;;;31.00;49.70;;;;;;5122356;28;20433;-46
2022/08/18 10:02:10;;;;;;;7.10;6.37;;;31.10;49.60;;;;;;5114955;29;20232;-46
2022/08/18 10:04:49;;;;;;;8.67;6.30;;;31.30;49.30;;;;;;5114453;28;20213;-46
2022/08/18 10:07:32;;;;;;;8.13;7.40;;;31.70;49.00;;;;;;5118887;28;20201;-47
2022/08/18 10:10:19;;;;;;;23.47;12.17;;;31.90;48.20;;;;;;5116040;28;20221;-46
2022/08/18 10:13:05;;;;;;;15.43;7.97;;;31.60;48.60;;;;;;5114971;28;20685;-46
2022/08/18 10:16:04;;;;;;;12.23;7.40;;;31.50;48.60;;;;;;5119767;28;20609;-45
2022/08/18 10:19:13;;;;;;;8.90;7.70;;;31.50;48.30;;;;;;5118458;28;20189;-48
2022/08/18 10:21:58;;;;;;;10.73;6.70;;;31.60;48.20;;;;;;5117494;28;20206;-45
2022/08/18 10:24:35;;;;;;;11.93;8.00;;;31.60;48.20;;;;;;5126750;28;20662;-47
2022/08/18 10:27:13;;;;;;;9.00;6.50;;;31.80;48.10;;;;;;5118498;28;20208;-46
2022/08/18 10:29:48;;;;;;;23.40;8.13;;;31.90;47.20;;;;;;5112405;28;20197;-46
2022/08/18 10:32:24;;;;;;;11.63;7.07;;;31.80;46.90;;;;;;5116632;28;20235;-46
2022/08/18 10:34:56;;;;;;;8.50;7.63;;;31.50;47.60;;;;;;5115911;28;20189;-49
2022/08/18 10:37:38;;;;;;;11.40;7.73;;;31.30;48.20;;;;;;5111174;28;20189;-46
2022/08/18 10:40:16;;;;;;;8.20;7.30;;;31.10;48.30;;;;;;5118039;28;20206;-46
2022/08/18 10:43:08;;;;;;;8.43;6.07;;;31.00;48.80;;;;;;5118676;28;20419;-46
2022/08/18 10:45:52;;;;;;;12.07;8.37;;;31.00;49.50;;;;;;5126499;28;20722;-46
2022/08/18 10:48:28;;;;;;;11.63;6.40;;;31.00;48.90;;;;;;5118437;28;20515;-46
2022/08/18 10:51:02;;;;;;;8.23;6.60;;;31.20;48.50;;;;;;5116736;28;20639;-46
2022/08/18 10:53:57;;;;;;;8.93;6.73;;;31.30;48.80;;;;;;5119450;28;20181;-50
2022/08/18 10:56:34;;;;;;;17.60;8.50;;;31.60;48.40;;;;;;5122558;28;20209;-45
2022/08/18 10:59:20;;;;;;;16.90;9.13;;;31.80;47.30;;;;;;5119085;28;20173;-46
2022/08/18 11:02:03;;;;;;;11.10;7.53;;;32.00;47.20;;;;;;5115652;28;20304;-48
2022/08/18 11:04:46;;;;;;;8.13;6.90;;;32.10;46.60;;;;;;5123391;28;20190;-45
2022/08/18 11:07:21;;;;;;;11.90;7.00;;;32.10;46.10;;;;;;5120164;28;20189;-46
2022/08/18 11:09:55;;;;;;;6.83;6.17;;;31.80;45.90;;;;;;5115413;28;20655;-46
2022/08/18 11:13:04;;;;;;;10.07;6.57;;;31.70;46.00;;;;;;5119947;28;20205;-46
2022/08/18 11:15:40;;;;;;;13.90;7.30;;;31.70;46.00;;;;;;5196598;28;20186;-47
2022/08/18 11:18:31;;;;;;;9.97;6.40;;;31.60;45.30;;;;;;5141492;28;20189;-49
2022/08/18 11:21:38;;;;;;;7.33;6.23;;;31.70;45.40;;;;;;5118818;28;20612;-49
2022/08/18 11:24:11;;;;;;;9.23;5.87;;;31.60;45.40;;;;;;5114597;28;20298;-48
2022/08/18 11:26:51;;;;;;;9.30;7.67;;;31.50;45.50;;;;;;5198658;28;20240;-48
2022/08/18 11:29:28;;;;;;;7.60;6.83;;;31.70;44.80;;;;;;5119159;28;20196;-46
2022/08/18 11:32:17;;;;;;;7.50;6.77;;;31.70;44.80;;;;;;5136992;28;20464;-47
2022/08/18 11:34:55;;;;;;;9.17;7.03;;;32.00;44.40;;;;;;5121202;28;20205;-46
2022/08/18 11:37:37;;;;;;;14.00;8.83;;;32.30;43.70;;;;;;5116021;28;20178;-47
2022/08/18 11:40:23;;;;;;;8.73;7.23;;;32.20;44.30;;;;;;5121713;28;20206;-45
2022/08/18 11:42:56;;;;;;;11.13;5.57;;;32.20;43.90;;;;;;5126377;28;20177;-46
2022/08/18 11:45:47;;;;;;;6.93;6.23;;;32.10;43.60;;;;;;5121344;28;20205;-47
2022/08/18 11:48:34;;;;;;;10.40;8.07;;;32.30;43.90;;;;;;5137611;28;20299;-47
2022/08/18 11:51:30;;;;;;;13.50;6.77;;;32.40;43.60;;;;;;5116002;28;20217;-47
2022/08/18 11:54:20;;;;;;;14.53;6.80;;;32.60;43.40;;;;;;5115489;29;20178;-48
2022/08/18 11:56:51;;;;;;;12.03;5.77;;;32.80;42.90;;;;;;5116204;29;20259;-45
2022/08/18 11:59:24;;;;;;;5.40;4.90;;;32.90;42.10;;;;;;5116641;28;20672;-47
2022/08/18 12:01:55;;;;;;;6.90;6.20;;;33.00;41.40;;;;;;5113126;28;20210;-46
2022/08/18 12:04:36;;;;;;;7.33;5.73;;;33.10;41.00;;;;;;5116396;28;20193;-47
2022/08/18 12:07:10;;;;;;;5.00;4.50;;;33.00;40.30;;;;;;5127366;28;20183;-45
2022/08/18 12:10:10;;;;;;;8.63;5.77;;;33.00;40.20;;;;;;5106079;28;20193;-46
2022/08/18 12:12:51;;;;;;;6.73;6.13;;;33.10;39.40;;;;;;5123599;28;20691;-47
2022/08/18 12:15:33;;;;;;;4.83;4.50;;;33.20;39.50;;;;;;5114024;28;20190;-48
2022/08/18 12:18:04;;;;;;;6.70;5.90;;;33.30;39.60;;;;;;5118495;28;20208;-46
2022/08/18 12:20:34;;;;;;;7.32;6.28;;;33.60;39.70;;;;;;5127165;28;20205;-46
2022/08/18 12:23:05;;;;;;;4.97;4.57;;;33.80;39.60;;;;;;5121014;28;20185;-47
2022/08/18 12:25:35;;;;;;;5.82;5.05;;;33.90;38.70;;;;;;5109570;28;20193;-48
2022/08/18 12:28:07;;;;;;;5.72;4.32;;;33.80;38.20;;;;;;5110880;28;20212;-47
2022/08/18 12:30:37;;;;;;;6.65;5.30;;;34.00;38.30;;;;;;5118251;28;20283;-46
2022/08/18 12:33:08;;;;;;;7.72;5.13;;;34.00;37.40;;;;;;5118386;28;20186;-50
2022/08/18 12:35:39;;;;;;;4.72;4.30;;;34.10;37.50;;;;;;5114161;28;20186;-46
2022/08/18 12:38:11;;;;;;;7.03;5.05;;;34.10;37.70;;;;;;5123189;28;20178;-47
2022/08/18 12:40:42;;;;;;;8.98;5.53;;;34.20;37.00;;;;;;5127324;28;20243;-46
2022/08/18 12:43:12;;;;;;;11.70;6.65;;;34.20;37.10;;;;;;5123339;28;20182;-46
2022/08/18 12:45:43;;;;;;;5.50;5.00;;;34.20;37.50;;;;;;5126957;28;20217;-46
2022/08/18 12:48:14;;;;;;;9.57;5.88;;;34.30;37.80;;;;;;5120938;28;20181;-46
2022/08/18 12:50:44;;;;;;;5.72;5.43;;;34.30;38.80;;;;;;5122117;28;20312;-46
2022/08/18 12:53:15;;;;;;;9.18;6.20;;;34.30;39.20;;;;;;5119357;28;20180;-47
2022/08/18 12:55:45;;;;;;;5.78;5.32;;;34.20;39.10;;;;;;5139683;28;20275;-46
2022/08/18 12:58:16;;;;;;;6.53;5.93;;;34.00;39.30;;;;;;5119802;28;20178;-46
2022/08/18 13:00:47;;;;;;;7.03;5.57;;;33.80;39.50;;;;;;5126355;28;20202;-46
2022/08/18 13:03:18;;;;;;;10.57;6.15;;;33.60;39.10;;;;;;5121985;28;20245;-45
2022/08/18 13:05:50;;;;;;;10.25;5.40;;;33.80;39.70;;;;;;5121297;28;20533;-46
2022/08/18 13:08:21;;;;;;;6.25;5.60;;;34.10;38.70;;;;;;5119329;28;20182;-46
2022/08/18 13:10:52;;;;;;;7.90;6.47;;;34.20;38.10;;;;;;5122785;28;20221;-45
2022/08/18 13:13:22;;;;;;;13.63;9.48;;;34.10;37.40;;;;;;5127480;28;20557;-46
2022/08/18 13:15:54;;;;;;;10.98;6.72;;;34.00;39.20;;;;;;5124797;28;20260;-48
2022/08/18 13:18:25;;;;;;;6.97;6.28;;;33.80;38.90;;;;;;5119716;28;20234;-47
2022/08/18 13:20:57;;;;;;;6.57;5.55;;;33.80;38.20;;;;;;5120547;28;20275;-46
2022/08/18 13:23:27;;;;;;;10.10;6.30;;;33.60;39.30;;;;;;5121519;28;20186;-45
2022/08/18 13:26:00;;;;;;;10.75;7.03;;;33.70;40.40;;;;;;5123523;28;20299;-46
2022/08/18 13:28:32;;;;;;;7.55;6.47;;;33.60;40.10;;;;;;5127305;28;20247;-47
2022/08/18 13:31:04;;;;;;;7.03;6.38;;;33.50;40.30;;;;;;5157168;22;25030;-48
2022/08/18 13:33:34;;;;;;;7.97;5.95;;;33.60;40.50;;;;;;5218758;28;20182;-48
2022/08/18 13:36:05;;;;;;;7.93;5.78;;;33.60;39.80;;;;;;5207575;28;20240;-49
2022/08/18 13:38:35;;;;;;;7.07;6.45;;;33.80;40.00;;;;;;5201813;28;20211;-49
2022/08/18 13:41:07;;;;;;;29.88;17.13;;;33.80;40.00;;;;;;5208250;28;20230;-49
2022/08/18 13:43:41;;;;;;;9.23;8.05;;;33.80;39.90;;;;;;5213687;28;20274;-48
2022/08/18 13:46:17;;;;;;;11.38;8.98;;;33.70;39.00;;;;;;5210562;28;20210;-48
2022/08/18 13:48:47;;;;;;;6.85;6.18;;;33.70;39.30;;;;;;5206966;28;20176;-51
2022/08/18 13:51:22;;;;;;;9.15;6.65;;;33.80;39.30;;;;;;5207491;28;21325;-50
2022/08/18 13:53:53;;;;;;;11.82;6.43;;;34.00;39.00;;;;;;5202566;28;20198;-52